createdAt,value
2019-05-14T00:01:51.422Z,56.40
2019-05-14T00:04:19.160Z,56.40
2019-05-14T00:06:46.733Z,58.10
2019-05-14T00:09:14.292Z,58.40
2019-05-14T00:11:42.270Z,59.60
2019-05-14T00:14:11.652Z,59.40
2019-05-14T00:16:39.423Z,62.20
2019-05-14T00:19:06.990Z,61.70
2019-05-14T00:21:34.594Z,61.80
2019-05-14T00:24:02.184Z,62.80
2019-05-14T00:26:31.737Z,64.40
2019-05-14T00:28:59.002Z,66.20
2019-05-14T00:31:26.514Z,66.10
2019-05-14T00:33:54.082Z,66.90
2019-05-14T00:36:21.694Z,67.70
2019-05-14T00:38:51.203Z,69.90
2019-05-14T00:41:18.544Z,71.90
2019-05-14T00:43:46.138Z,72.30
2019-05-14T00:46:13.649Z,73.60
2019-05-14T00:48:42.217Z,76.20
2019-05-14T00:51:11.096Z,80.10
2019-05-14T00:53:38.777Z,83.30
2019-05-14T00:56:06.391Z,87.80
2019-05-14T00:58:33.929Z,89.80
2019-05-14T01:01:01.788Z,91.10
2019-05-14T01:03:29.672Z,91.80
2019-05-14T01:05:58.963Z,92.40
2019-05-14T01:08:26.540Z,92.40
2019-05-14T01:10:54.119Z,93.00
2019-05-14T01:13:22.032Z,93.90
2019-05-14T01:15:51.895Z,94.80
2019-05-14T01:18:18.979Z,96.40
2019-05-14T01:20:46.556Z,96.80
2019-05-14T01:23:14.096Z,98.00
2019-05-14T01:25:42.243Z,98.50
2019-05-14T01:28:11.286Z,99.10
2019-05-14T01:30:40.987Z,99.90
2019-05-14T01:33:08.314Z,99.90
2019-05-14T01:35:35.866Z,99.90
2019-05-14T01:38:03.431Z,99.90
2019-05-14T01:40:31.649Z,99.90
2019-05-14T01:42:59.427Z,99.90
2019-05-14T01:45:28.325Z,99.90
2019-05-14T01:47:56.169Z,99.90
2019-05-14T01:50:23.714Z,99.90
2019-05-14T01:52:52.013Z,99.90
2019-05-14T01:55:21.846Z,99.90
2019-05-14T01:57:49.122Z,99.90
2019-05-14T02:00:16.692Z,99.90
2019-05-14T02:02:44.232Z,99.90
2019-05-14T02:05:12.504Z,99.90
2019-05-14T02:08:01.670Z,99.90
2019-05-14T02:10:28.909Z,99.90
2019-05-14T02:12:56.437Z,99.90
2019-05-14T02:15:36.318Z,99.90
2019-05-14T02:17:53.260Z,99.90
2019-05-14T02:20:21.605Z,99.90
2019-05-14T02:22:49.338Z,99.90
2019-05-14T02:25:16.879Z,99.90
2019-05-14T02:27:44.407Z,99.90
2019-05-14T02:30:11.984Z,99.90
2019-05-14T02:32:40.696Z,99.90
2019-05-14T02:35:09.927Z,99.90
2019-05-14T02:37:40.068Z,99.90
2019-05-14T02:40:09.808Z,99.90
2019-05-14T02:42:39.723Z,99.90
2019-05-14T02:45:08.886Z,99.90
2019-05-14T02:47:35.563Z,99.90
2019-05-14T02:50:03.358Z,99.90
2019-05-14T02:52:30.932Z,99.90
2019-05-14T02:54:59.721Z,99.90
2019-05-14T02:57:30.291Z,99.90
2019-05-14T02:59:59.711Z,99.90
2019-05-14T03:02:26.047Z,99.90
2019-05-14T03:04:53.577Z,99.90
2019-05-14T03:07:21.146Z,99.90
2019-05-14T03:09:50.200Z,99.90
2019-05-14T03:12:19.412Z,99.90
2019-05-14T03:14:49.953Z,99.90
2019-05-14T03:17:19.571Z,99.90
2019-05-14T03:19:49.305Z,99.90
2019-05-14T03:22:15.107Z,99.90
2019-05-14T03:24:42.673Z,99.90
2019-05-14T03:27:10.263Z,99.90
2019-05-14T03:29:39.822Z,99.90
2019-05-14T03:32:13.141Z,99.90
2019-05-14T03:34:41.985Z,99.90
2019-05-14T03:37:12.030Z,99.90
2019-05-14T03:39:35.034Z,99.90
2019-05-14T03:42:02.556Z,99.90
2019-05-14T03:44:30.108Z,99.90
2019-05-14T03:47:04.419Z,99.90
2019-05-14T03:49:28.891Z,99.90
2019-05-14T03:51:56.186Z,99.90
2019-05-14T03:54:23.722Z,99.90
2019-05-14T03:56:51.259Z,99.90
2019-05-14T03:59:19.929Z,99.90
2019-05-14T04:01:51.160Z,99.90
2019-05-14T04:04:19.469Z,99.90
2019-05-14T04:06:49.364Z,99.90
2019-05-14T04:09:15.672Z,99.90
2019-05-14T04:11:43.758Z,99.90
2019-05-14T04:14:11.497Z,99.90
2019-05-14T04:16:39.866Z,99.90
2019-05-14T04:19:09.942Z,99.90
2019-05-14T04:21:39.861Z,99.90
2019-05-14T04:24:09.605Z,99.90
2019-05-14T04:26:53.438Z,99.90
2019-05-14T04:29:04.862Z,99.90
2019-05-14T04:31:32.397Z,99.90
2019-05-14T04:34:01.665Z,99.90
2019-05-14T04:36:30.263Z,99.90
2019-05-14T04:39:00.584Z,99.90
2019-05-14T04:41:29.907Z,99.90
2019-05-14T04:43:59.502Z,99.90
2019-05-14T04:46:25.915Z,99.90
2019-05-14T04:48:53.446Z,99.90
2019-05-14T04:51:21.021Z,99.90
2019-05-14T04:53:49.816Z,99.90
2019-05-14T04:56:19.551Z,99.90
2019-05-14T04:58:49.672Z,99.90
2019-05-14T05:01:19.552Z,99.90
2019-05-14T05:03:45.961Z,99.90
2019-05-14T05:06:13.537Z,99.90
2019-05-14T05:08:41.080Z,99.90
2019-05-14T05:11:09.489Z,99.90
2019-05-14T05:13:39.648Z,99.90
2019-05-14T05:16:09.647Z,99.90
2019-05-14T05:18:36.250Z,99.90
2019-05-14T05:21:03.818Z,99.90
2019-05-14T05:23:31.408Z,99.90
2019-05-14T05:25:58.959Z,99.90
2019-05-14T05:28:28.282Z,99.90
2019-05-14T05:30:55.773Z,99.90
2019-05-14T05:33:23.334Z,99.90
2019-05-14T05:35:50.858Z,99.90
2019-05-14T05:38:18.489Z,99.90
2019-05-14T05:40:48.416Z,99.90
2019-05-14T05:43:15.310Z,99.90
2019-05-14T05:45:42.892Z,99.90
2019-05-14T05:48:10.438Z,99.90
2019-05-14T05:50:38.854Z,99.90
2019-05-14T05:53:08.853Z,99.90
2019-05-14T05:55:35.874Z,99.90
2019-05-14T05:58:03.420Z,99.90
2019-05-14T06:00:32.448Z,99.90
2019-05-14T06:02:59.986Z,99.90
2019-05-14T06:05:29.235Z,99.90
2019-05-14T06:07:59.066Z,99.90
2019-05-14T06:10:28.577Z,99.90
2019-05-14T06:12:55.505Z,99.90
2019-05-14T06:15:23.072Z,99.90
2019-05-14T06:17:50.598Z,99.90
2019-05-14T06:20:18.942Z,99.90
2019-05-14T06:22:48.780Z,99.90
2019-05-14T06:25:20.384Z,99.90
2019-05-14T06:27:45.250Z,99.90
2019-05-14T06:30:12.828Z,99.90
2019-05-14T06:32:40.394Z,99.90
2019-05-14T06:35:08.809Z,99.90
2019-05-14T06:37:38.509Z,99.90
2019-05-14T06:40:09.025Z,99.90
2019-05-14T06:42:39.183Z,99.90
2019-05-14T06:45:05.944Z,99.90
2019-05-14T06:47:33.516Z,99.90
2019-05-14T06:50:01.051Z,99.90
2019-05-14T06:52:29.106Z,99.90
2019-05-14T06:54:58.227Z,99.90
2019-05-14T06:57:28.377Z,99.90
2019-05-14T06:59:55.240Z,99.90
2019-05-14T07:02:22.842Z,99.90
2019-05-14T07:04:50.404Z,99.90
2019-05-14T07:07:20.483Z,99.90
2019-05-14T07:09:48.841Z,98.50
2019-05-14T07:12:18.938Z,98.00
2019-05-14T07:17:41.607Z,98.90
2019-05-14T07:20:09.164Z,97.50
2019-05-14T07:22:38.943Z,97.80
2019-05-14T07:25:09.520Z,97.60
2019-05-14T07:27:35.783Z,94.60
2019-05-14T07:30:04.419Z,96.60
2019-05-14T07:32:31.965Z,95.40
2019-05-14T07:34:59.680Z,96.30
2019-05-14T07:37:28.585Z,93.20
2019-05-14T07:39:57.969Z,93.50
2019-05-14T07:42:25.681Z,92.00
2019-05-14T07:44:53.215Z,91.30
2019-05-14T07:47:20.767Z,91.90
2019-05-14T07:49:48.999Z,92.40
2019-05-14T07:52:19.515Z,90.70
2019-05-14T07:54:48.026Z,91.20
2019-05-14T07:57:15.359Z,89.90
2019-05-14T07:59:42.903Z,86.80
2019-05-14T08:02:12.873Z,87.90
2019-05-14T08:04:39.730Z,83.30
2019-05-14T08:07:08.975Z,75.60
2019-05-14T08:09:38.712Z,79.40
2019-05-14T08:12:05.948Z,78.00
2019-05-14T08:14:41.895Z,76.30
2019-05-14T08:17:02.862Z,73.00
2019-05-14T08:19:33.945Z,67.30
2019-05-14T08:21:59.725Z,67.90
2019-05-14T08:24:29.947Z,70.20
2019-05-14T08:26:57.938Z,69.30
2019-05-14T08:29:25.618Z,66.50
2019-05-14T08:31:53.147Z,65.30
2019-05-14T08:34:20.721Z,65.80
2019-05-14T08:36:48.484Z,66.70
2019-05-14T08:39:18.371Z,62.90
2019-05-14T08:41:55.999Z,60.20
2019-05-14T08:44:14.733Z,60.00
2019-05-14T08:46:44.978Z,63.60
2019-05-14T08:49:11.562Z,60.50
2019-05-14T08:51:39.139Z,62.10
2019-05-14T08:54:08.248Z,60.40
2019-05-14T08:56:38.727Z,54.70
2019-05-14T08:59:05.221Z,55.40
2019-05-14T09:01:32.774Z,53.20
2019-05-14T09:04:00.353Z,52.60
2019-05-14T09:06:28.945Z,52.80
2019-05-14T09:08:59.303Z,56.70
2019-05-14T09:11:26.579Z,54.40
2019-05-14T09:13:55.265Z,53.80
2019-05-14T09:16:38.480Z,52.00
2019-05-14T09:18:52.086Z,52.20
2019-05-14T09:21:20.622Z,52.30
2019-05-14T09:23:48.419Z,53.50
2019-05-14T09:26:17.957Z,56.40
2019-05-14T09:28:45.272Z,52.70
2019-05-14T09:31:12.870Z,52.50
2019-05-14T09:33:40.469Z,49.50
2019-05-14T09:36:18.149Z,50.00
2019-05-14T09:38:41.934Z,45.10
2019-05-14T09:41:12.146Z,42.80
2019-05-14T09:43:35.837Z,42.70
2019-05-14T09:46:03.404Z,43.20
2019-05-14T09:48:30.940Z,43.10
2019-05-14T09:50:58.727Z,42.20
2019-05-14T09:53:28.682Z,43.20
2019-05-14T09:55:55.682Z,43.50
2019-05-14T09:58:23.238Z,43.20
2019-05-14T10:00:50.809Z,44.10
2019-05-14T10:03:19.263Z,44.80
2019-05-14T10:05:47.008Z,44.50
2019-05-14T10:08:14.593Z,44.00
2019-05-14T10:10:42.128Z,44.80
2019-05-14T10:13:09.925Z,43.80
2019-05-14T10:15:39.056Z,44.40
2019-05-14T10:18:11.024Z,41.10
2019-05-14T10:20:42.461Z,39.50
2019-05-14T10:23:05.347Z,39.50
2019-05-14T10:25:32.906Z,35.50
2019-05-14T10:28:00.522Z,37.50
2019-05-14T10:30:28.589Z,38.80
2019-05-14T10:32:56.312Z,38.50
2019-05-14T10:35:23.867Z,35.50
2019-05-14T10:37:54.382Z,32.70
2019-05-14T10:40:20.712Z,28.50
2019-05-14T10:42:49.475Z,26.00
2019-05-14T10:45:18.666Z,22.90
2019-05-14T10:47:46.412Z,20.50
2019-05-14T10:50:14.186Z,22.70
2019-05-14T10:52:41.863Z,21.60
2019-05-14T10:55:09.419Z,21.00
2019-05-14T10:57:36.978Z,20.30
2019-05-14T11:00:08.892Z,21.60
2019-05-14T11:02:38.783Z,23.40
2019-05-14T11:05:05.987Z,22.80
2019-05-14T11:07:33.531Z,21.60
2019-05-14T11:10:01.063Z,22.10
2019-05-14T11:12:29.715Z,23.70
2019-05-14T11:14:57.560Z,23.60
2019-05-14T11:17:25.100Z,22.50
2019-05-14T11:19:52.668Z,20.70
2019-05-14T11:22:20.211Z,20.70
2019-05-14T11:24:49.179Z,22.30
2019-05-14T11:27:18.676Z,22.60
2019-05-14T11:29:48.889Z,24.40
2019-05-14T11:32:18.273Z,23.20
2019-05-14T11:34:44.951Z,21.30
2019-05-14T11:37:12.534Z,19.60
2019-05-14T11:39:40.069Z,19.60
2019-05-14T11:42:08.480Z,20.80
2019-05-14T11:44:38.257Z,19.20
2019-05-14T11:47:05.828Z,21.00
2019-05-14T11:49:33.401Z,20.20
2019-05-14T11:52:07.825Z,18.80
2019-05-14T11:54:30.264Z,20.80
2019-05-14T11:56:58.947Z,21.80
2019-05-14T11:59:28.453Z,23.40
2019-05-14T12:01:59.129Z,23.90
2019-05-14T12:04:25.306Z,23.60
2019-05-14T12:06:52.856Z,24.20
2019-05-14T12:09:20.407Z,22.50
2019-05-14T12:11:47.961Z,21.80
2019-05-14T12:14:15.531Z,23.60
2019-05-14T12:16:43.092Z,23.70
2019-05-14T12:19:12.060Z,23.90
2019-05-14T12:21:39.997Z,23.30
2019-05-14T12:24:13.426Z,22.20
2019-05-14T12:26:38.561Z,21.30
2019-05-14T12:29:06.322Z,19.80
2019-05-14T12:31:33.878Z,19.10
2019-05-14T12:34:01.432Z,17.60
2019-05-14T12:36:29.427Z,17.30
2019-05-14T12:38:59.142Z,17.50
2019-05-14T12:41:28.759Z,17.40
2019-05-14T12:43:55.692Z,15.30
2019-05-14T12:46:23.236Z,15.10
2019-05-14T12:48:50.782Z,17.90
2019-05-14T12:51:18.675Z,18.70
2019-05-14T12:53:48.565Z,19.90
2019-05-14T12:56:18.566Z,22.80
2019-05-14T12:58:46.024Z,23.70
2019-05-14T13:01:13.672Z,23.00
2019-05-14T13:03:41.238Z,20.00
2019-05-14T13:06:09.957Z,17.60
2019-05-14T13:08:38.603Z,18.80
2019-05-14T13:11:09.343Z,18.30
2019-05-14T13:13:35.888Z,16.70
2019-05-14T13:16:04.515Z,16.00
2019-05-14T13:18:32.194Z,16.70
2019-05-14T13:20:59.728Z,15.40
2019-05-14T13:23:29.251Z,15.90
2019-05-14T13:25:58.999Z,16.80
2019-05-14T13:28:28.798Z,17.60
2019-05-14T13:30:55.105Z,17.80
2019-05-14T13:33:22.664Z,19.50
2019-05-14T13:35:50.226Z,20.50
2019-05-14T13:38:17.825Z,23.20
2019-05-14T13:40:45.632Z,21.50
2019-05-14T13:43:14.504Z,20.00
2019-05-14T13:45:42.332Z,18.30
2019-05-14T13:48:09.873Z,20.20
2019-05-14T13:50:40.067Z,22.30
2019-05-14T13:53:12.093Z,23.90
2019-05-14T13:55:36.018Z,22.60
2019-05-14T13:58:03.622Z,22.90
2019-05-14T14:00:31.173Z,22.10
2019-05-14T14:02:59.097Z,21.70
2019-05-14T14:05:26.822Z,22.50
2019-05-14T14:07:54.469Z,22.20
2019-05-14T14:10:22.030Z,24.30
2019-05-14T14:12:49.975Z,22.40
2019-05-14T14:15:17.636Z,24.40
2019-05-14T14:17:45.203Z,26.20
2019-05-14T14:20:12.732Z,27.70
2019-05-14T14:22:40.690Z,27.60
2019-05-14T14:25:08.960Z,28.20
2019-05-14T14:27:40.837Z,27.70
2019-05-14T14:30:08.999Z,28.20
2019-05-14T14:32:35.523Z,28.20
2019-05-14T14:35:03.089Z,28.00
2019-05-14T14:37:30.628Z,28.50
2019-05-14T14:39:59.323Z,28.30
2019-05-14T14:42:29.681Z,28.30
2019-05-14T14:44:56.335Z,27.90
2019-05-14T14:47:23.879Z,28.50
2019-05-14T14:49:52.206Z,29.30
2019-05-14T14:52:20.152Z,29.90
2019-05-14T14:54:48.874Z,29.10
2019-05-14T14:57:19.701Z,32.10
2019-05-14T14:59:48.336Z,31.00
2019-05-14T15:02:15.239Z,29.60
2019-05-14T15:04:42.798Z,29.40
2019-05-14T15:07:10.369Z,28.20
2019-05-14T15:09:40.274Z,28.10
2019-05-14T15:12:09.079Z,29.40
2019-05-14T15:14:39.304Z,27.60
2019-05-14T15:17:05.733Z,28.70
2019-05-14T15:19:33.272Z,28.90
2019-05-14T15:22:00.827Z,29.50
2019-05-14T15:24:28.407Z,30.50
2019-05-14T15:26:56.031Z,30.10
2019-05-14T15:29:23.689Z,30.50
2019-05-14T15:31:51.262Z,29.90
2019-05-14T15:34:19.148Z,30.00
2019-05-14T15:36:49.295Z,29.50
2019-05-14T15:39:19.038Z,29.90
2019-05-14T15:41:45.443Z,30.20
2019-05-14T15:44:12.984Z,30.60
2019-05-14T15:46:41.731Z,30.00
2019-05-14T15:49:09.698Z,30.70
2019-05-14T15:51:39.580Z,32.20
2019-05-14T15:54:31.169Z,32.00
2019-05-14T15:56:35.769Z,33.30
2019-05-14T15:59:03.321Z,32.80
2019-05-14T16:01:30.880Z,35.20
2019-05-14T16:03:58.822Z,34.00
2019-05-14T16:06:26.596Z,32.40
2019-05-14T16:08:54.174Z,33.20
2019-05-14T16:11:21.704Z,32.90
2019-05-14T16:13:49.588Z,33.00
2019-05-14T16:16:19.497Z,32.50
2019-05-14T16:18:48.038Z,32.80
2019-05-14T16:21:18.035Z,32.30
2019-05-14T16:23:45.066Z,32.90
2019-05-14T16:26:12.635Z,32.60
2019-05-14T16:28:40.187Z,33.80
2019-05-14T16:31:08.580Z,35.50
2019-05-14T16:33:40.055Z,35.80
2019-05-14T16:36:05.728Z,35.00
2019-05-14T16:38:33.287Z,35.90
2019-05-14T16:41:00.855Z,35.60
2019-05-14T16:43:31.571Z,35.60
2019-05-14T16:45:59.770Z,35.60
2019-05-14T16:48:28.989Z,35.50
2019-05-14T16:50:58.289Z,35.00
2019-05-14T16:53:25.559Z,34.60
2019-05-14T16:55:53.104Z,33.30
2019-05-14T16:58:20.664Z,33.50
2019-05-14T17:00:48.243Z,33.60
2019-05-14T17:03:18.866Z,33.80
2019-05-14T17:05:45.060Z,35.20
2019-05-14T17:08:12.742Z,34.70
2019-05-14T17:10:40.330Z,36.00
2019-05-14T17:13:09.088Z,37.40
2019-05-14T17:15:39.219Z,37.90
2019-05-14T17:18:08.656Z,38.90
2019-05-14T17:20:35.381Z,40.00
2019-05-14T17:23:02.948Z,40.30
2019-05-14T17:25:30.671Z,40.30
2019-05-14T17:27:59.320Z,39.50
2019-05-14T17:30:29.118Z,40.10
2019-05-14T17:32:58.755Z,39.70
2019-05-14T17:35:25.697Z,39.20
2019-05-14T17:37:53.222Z,40.20
2019-05-14T17:40:20.801Z,39.50
2019-05-14T17:42:48.816Z,39.20
2019-05-14T17:45:16.484Z,39.20
2019-05-14T17:47:44.019Z,39.50
2019-05-14T17:50:11.573Z,39.90
2019-05-14T17:52:43.323Z,39.70
2019-05-14T17:55:12.190Z,40.50
2019-05-14T17:57:45.271Z,39.90
2019-05-14T18:00:09.465Z,40.50
2019-05-14T18:02:37.248Z,41.00
2019-05-14T18:05:04.793Z,41.00
2019-05-14T18:07:32.328Z,41.20
2019-05-14T18:09:59.910Z,40.50
2019-05-14T18:12:30.600Z,41.10
2019-05-14T18:14:58.802Z,40.70
2019-05-14T18:17:26.002Z,41.90
2019-05-14T18:19:53.612Z,41.20
2019-05-14T18:22:21.138Z,42.20
2019-05-14T18:24:48.800Z,42.20
2019-05-14T18:27:16.424Z,43.20
2019-05-14T18:29:43.998Z,43.50
2019-05-14T18:32:11.550Z,43.40
2019-05-14T18:34:39.324Z,43.60
2019-05-14T18:37:13.509Z,44.70
2019-05-14T18:39:39.224Z,45.00
2019-05-14T18:42:08.147Z,45.30
2019-05-14T18:44:34.893Z,45.80
2019-05-14T18:47:02.466Z,46.60
2019-05-14T18:49:29.991Z,46.90
2019-05-14T18:51:59.297Z,47.30
2019-05-14T18:54:29.169Z,46.60
2019-05-14T18:56:56.223Z,47.20
2019-05-14T18:59:23.801Z,47.40
2019-05-14T19:01:53.872Z,47.90
2019-05-14T19:04:20.647Z,48.50
2019-05-14T19:06:48.385Z,49.40
2019-05-14T19:09:18.427Z,50.30
2019-05-14T19:11:45.267Z,51.70
2019-05-14T19:14:12.812Z,51.60
2019-05-14T19:16:40.383Z,51.80
2019-05-14T19:19:08.108Z,52.90
2019-05-14T19:21:38.067Z,53.30
2019-05-14T19:24:05.036Z,53.80
2019-05-14T19:26:36.753Z,53.90
2019-05-14T19:29:01.840Z,54.50
2019-05-14T19:31:29.394Z,56.00
2019-05-14T19:33:56.954Z,59.10
2019-05-14T19:36:24.566Z,59.80
2019-05-14T19:38:52.123Z,58.00
2019-05-14T19:41:22.853Z,57.70
2019-05-14T19:43:48.980Z,57.00
2019-05-14T19:46:16.516Z,55.50
2019-05-14T19:48:44.087Z,56.20
2019-05-14T19:51:11.625Z,56.90
2019-05-14T19:53:39.419Z,59.30
2019-05-14T19:56:07.094Z,58.10
2019-05-14T19:58:34.706Z,58.10
2019-05-14T20:01:02.331Z,58.80
2019-05-14T20:03:29.908Z,59.80
2019-05-14T20:05:57.448Z,60.60
2019-05-14T20:08:25.027Z,61.40
2019-05-14T20:10:52.552Z,63.00
2019-05-14T20:13:20.131Z,63.50
2019-05-14T20:15:48.655Z,64.20
2019-05-14T20:18:16.983Z,65.20
2019-05-14T20:20:44.632Z,66.10
2019-05-14T20:23:12.191Z,67.00
2019-05-14T20:25:39.803Z,68.20
2019-05-14T20:28:08.128Z,69.70
2019-05-14T20:30:38.471Z,70.80
2019-05-14T20:33:05.233Z,71.80
2019-05-14T20:35:34.958Z,73.00
2019-05-14T20:38:02.043Z,75.00
2019-05-14T20:40:29.605Z,75.60
2019-05-14T20:42:58.798Z,77.60
2019-05-14T20:45:28.803Z,77.00
2019-05-14T20:47:55.822Z,77.80
2019-05-14T20:50:23.342Z,79.90
2019-05-14T20:52:50.895Z,81.80
2019-05-14T20:55:19.075Z,82.00
2019-05-14T20:57:48.768Z,83.00
2019-05-14T21:00:18.109Z,83.80
2019-05-14T21:02:45.320Z,83.70
2019-05-14T21:05:13.808Z,85.20
2019-05-14T21:07:41.617Z,85.30
2019-05-14T21:10:09.210Z,86.00
2019-05-14T21:12:39.133Z,86.80
2019-05-14T21:15:08.788Z,86.90
2019-05-14T21:17:35.478Z,88.10
2019-05-14T21:20:03.591Z,89.10
2019-05-14T21:22:31.160Z,90.10
2019-05-14T21:24:58.690Z,90.20
2019-05-14T21:27:38.562Z,90.30
2019-05-14T21:29:55.539Z,91.10
2019-05-14T21:32:23.089Z,91.20
2019-05-14T21:34:50.625Z,91.50
2019-05-14T21:37:18.796Z,91.60
2019-05-14T21:39:48.891Z,91.90
2019-05-14T21:42:15.870Z,92.10
2019-05-14T21:44:43.427Z,92.50
2019-05-14T21:47:10.978Z,92.70
2019-05-14T21:49:38.996Z,93.10
2019-05-14T21:52:08.893Z,93.20
2019-05-14T21:54:36.003Z,93.80
2019-05-14T21:57:03.564Z,94.10
2019-05-14T21:59:31.197Z,94.30
2019-05-14T22:01:59.014Z,94.70
2019-05-14T22:04:28.863Z,95.00
2019-05-14T22:06:58.250Z,95.20
2019-05-14T22:09:25.236Z,95.60
2019-05-14T22:11:52.762Z,95.80
2019-05-14T22:14:20.303Z,95.70
2019-05-14T22:16:48.746Z,96.20
2019-05-14T22:19:16.294Z,96.60
2019-05-14T22:21:43.851Z,96.40
2019-05-14T22:24:11.394Z,96.90
2019-05-14T22:26:39.032Z,97.50
2019-05-14T22:29:08.365Z,97.60
2019-05-14T22:31:38.507Z,97.70
2019-05-14T22:34:05.275Z,98.10
2019-05-14T22:36:32.827Z,98.40
2019-05-14T22:39:00.362Z,98.90
2019-05-14T22:41:29.081Z,99.20
2019-05-14T22:43:59.725Z,99.50
2019-05-14T22:46:26.087Z,99.90
2019-05-14T22:48:53.641Z,99.90
2019-05-14T22:51:21.189Z,99.90
2019-05-14T22:53:49.442Z,99.90
2019-05-14T22:56:17.955Z,99.90
2019-05-14T22:58:45.504Z,99.90
2019-05-14T23:01:15.246Z,99.90
2019-05-14T23:03:42.327Z,99.90
2019-05-14T23:06:09.850Z,99.90
2019-05-14T23:08:39.107Z,99.90
2019-05-14T23:11:14.548Z,99.90
2019-05-14T23:13:42.107Z,99.90
2019-05-14T23:16:09.699Z,99.90
2019-05-14T23:18:38.004Z,99.90
2019-05-14T23:21:08.589Z,99.90
2019-05-14T23:23:35.032Z,99.90
2019-05-14T23:26:02.576Z,99.90
2019-05-14T23:28:41.846Z,99.90
2019-05-14T23:30:59.404Z,99.90
2019-05-14T23:33:28.831Z,99.90
2019-05-14T23:35:56.224Z,99.90
2019-05-14T23:38:23.968Z,99.90
2019-05-14T23:40:51.504Z,99.90
2019-05-14T23:43:19.097Z,99.90
2019-05-14T23:45:46.646Z,99.90
2019-05-14T23:48:14.202Z,99.90
2019-05-14T23:50:41.765Z,99.90
2019-05-14T23:53:09.483Z,99.90
2019-05-14T23:55:38.530Z,99.90
2019-05-14T23:58:08.375Z,99.90
